createdAt,value
2022-12-19T00:01:36.926Z,100520.84
2022-12-19T00:04:09.292Z,100512.25
2022-12-19T00:06:43.415Z,100508.72
2022-12-19T00:09:11.459Z,100513.91
2022-12-19T00:11:39.070Z,100499.25
2022-12-19T00:14:06.707Z,100495.34
2022-12-19T00:16:33.728Z,100491.06
2022-12-19T00:19:01.638Z,100478.13
2022-12-19T00:21:31.381Z,100483.22
2022-12-19T00:24:03.525Z,100477.00
2022-12-19T00:26:36.858Z,100477.53
2022-12-19T00:29:12.565Z,100481.13
2022-12-19T00:31:41.202Z,100475.16
2022-12-19T00:34:09.369Z,100477.81
2022-12-19T00:36:36.286Z,100476.09
2022-12-19T00:39:08.401Z,100480.34
2022-12-19T00:41:37.766Z,100482.91
2022-12-19T00:44:12.548Z,100468.91
2022-12-19T00:46:39.563Z,100472.22
2022-12-19T00:49:06.549Z,100468.66
2022-12-19T00:51:36.080Z,100459.09
2022-12-19T00:54:05.398Z,100468.75
2022-12-19T00:56:37.121Z,100462.63
2022-12-19T00:59:05.236Z,100463.53
2022-12-19T01:01:41.488Z,100467.97
2022-12-19T01:04:30.049Z,100464.59
2022-12-19T01:07:02.344Z,100460.19
2022-12-19T01:09:30.663Z,100463.69
2022-12-19T01:12:16.264Z,100461.91
2022-12-19T01:14:43.420Z,100454.03
2022-12-19T01:17:10.541Z,100451.28
2022-12-19T01:19:43.360Z,100453.94
2022-12-19T01:22:11.426Z,100443.56
2022-12-19T01:24:38.330Z,100429.75
2022-12-19T01:27:05.230Z,100442.03
2022-12-19T01:29:34.583Z,100425.63
2022-12-19T01:32:03.711Z,100433.50
2022-12-19T01:34:30.749Z,100426.59
2022-12-19T01:36:57.670Z,100427.38
2022-12-19T01:39:24.753Z,100424.81
2022-12-19T01:41:54.445Z,100413.53
2022-12-19T01:44:25.284Z,100402.44
2022-12-19T01:46:59.932Z,100393.06
2022-12-19T01:49:35.530Z,100394.94
2022-12-19T01:52:11.690Z,100387.22
2022-12-19T01:54:44.122Z,100394.16
2022-12-19T01:57:14.283Z,100386.41
2022-12-19T01:59:48.772Z,100371.69
2022-12-19T02:02:33.511Z,100381.09
2022-12-19T02:05:03.508Z,100363.72
2022-12-19T02:07:33.122Z,100358.41
2022-12-19T02:10:21.778Z,100370.34
2022-12-19T02:13:07.991Z,100380.69
2022-12-19T02:19:51.034Z,100365.00
2022-12-19T02:22:42.967Z,100359.00
2022-12-19T02:25:44.279Z,100359.91
2022-12-19T02:28:35.502Z,100354.81
2022-12-19T02:31:36.001Z,100359.19
2022-12-19T02:34:29.033Z,100363.53
2022-12-19T02:36:58.410Z,100361.88
2022-12-19T02:39:46.775Z,100357.53
2022-12-19T02:42:23.831Z,100357.56
2022-12-19T02:44:55.163Z,100358.50
2022-12-19T02:47:22.677Z,100339.41
2022-12-19T02:49:49.666Z,100353.19
2022-12-19T02:52:19.331Z,100367.06
2022-12-19T02:54:52.313Z,100369.72
2022-12-19T02:57:33.961Z,100374.88
2022-12-19T03:00:11.777Z,100370.69
2022-12-19T03:03:01.653Z,100374.16
2022-12-19T03:05:40.959Z,100380.22
2022-12-19T03:08:28.510Z,100372.41
2022-12-19T03:11:00.979Z,100339.63
2022-12-19T03:13:27.897Z,100362.13
2022-12-19T03:15:55.333Z,100353.41
2022-12-19T03:18:22.435Z,100337.03
2022-12-19T03:21:07.567Z,100336.94
2022-12-19T03:23:34.827Z,100336.09
2022-12-19T03:26:09.079Z,100318.88
2022-12-19T03:28:50.600Z,100343.06
2022-12-19T03:31:22.263Z,100338.72
2022-12-19T03:33:54.940Z,100349.03
2022-12-19T03:36:27.901Z,100351.50
2022-12-19T03:38:56.480Z,100342.78
2022-12-19T03:41:55.718Z,100353.00
2022-12-19T03:44:25.968Z,100352.09
2022-12-19T03:47:01.585Z,100314.16
2022-12-19T03:49:28.637Z,100351.44
2022-12-19T03:52:09.907Z,100341.97
2022-12-19T03:54:41.878Z,100342.88
2022-12-19T03:57:24.088Z,100305.66
2022-12-19T04:00:19.164Z,100329.13
2022-12-19T04:02:50.156Z,100328.25
2022-12-19T04:05:23.787Z,100324.72
2022-12-19T04:07:55.379Z,100323.00
2022-12-19T04:10:26.557Z,100329.00
2022-12-19T04:13:04.835Z,100337.69
2022-12-19T04:15:58.489Z,100315.25
2022-12-19T04:18:26.456Z,100318.88
2022-12-19T04:21:18.163Z,100323.22
2022-12-19T04:24:02.667Z,100316.34
2022-12-19T04:26:31.719Z,100313.81
2022-12-19T04:29:03.341Z,100301.72
2022-12-19T04:31:31.381Z,100289.66
2022-12-19T04:33:58.393Z,100305.16
2022-12-19T04:36:26.742Z,100301.69
2022-12-19T04:38:53.880Z,100302.53
2022-12-19T04:41:20.838Z,100299.84
2022-12-19T04:43:47.727Z,100289.44
2022-12-19T04:46:14.652Z,100289.44
2022-12-19T04:48:41.629Z,100297.03
2022-12-19T04:51:08.794Z,100297.84
2022-12-19T04:53:35.758Z,100300.47
2022-12-19T04:56:05.856Z,100298.75
2022-12-19T04:58:33.416Z,100295.22
2022-12-19T05:01:07.965Z,100286.53
2022-12-19T05:03:35.923Z,100285.69
2022-12-19T05:06:07.431Z,100296.97
2022-12-19T05:08:35.186Z,100280.66
2022-12-19T05:11:03.241Z,100266.81
2022-12-19T05:13:30.512Z,100272.97
2022-12-19T05:15:59.401Z,100264.47
2022-12-19T05:18:27.039Z,100252.47
2022-12-19T05:20:54.025Z,100244.63
2022-12-19T05:23:21.390Z,100265.38
2022-12-19T05:25:48.488Z,100272.34
2022-12-19T05:28:15.770Z,100274.97
2022-12-19T05:30:46.628Z,100271.47
2022-12-19T05:33:16.189Z,100268.03
2022-12-19T05:35:43.128Z,100267.97
2022-12-19T05:38:10.202Z,100273.16
2022-12-19T05:40:37.157Z,100278.38
2022-12-19T05:43:04.369Z,100282.75
2022-12-19T05:45:31.345Z,100284.47
2022-12-19T05:48:01.297Z,100274.09
2022-12-19T05:50:28.696Z,100269.03
2022-12-19T05:52:55.782Z,100263.91
2022-12-19T05:55:22.699Z,100272.56
2022-12-19T05:57:49.628Z,100272.59
2022-12-19T06:00:17.100Z,100269.13
2022-12-19T06:02:47.144Z,100274.31
2022-12-19T06:05:14.197Z,100280.38
2022-12-19T06:07:41.215Z,100272.56
2022-12-19T06:10:08.339Z,100252.66
2022-12-19T06:12:35.282Z,100263.94
2022-12-19T06:15:02.222Z,100259.59
2022-12-19T06:17:29.201Z,100262.22
2022-12-19T06:19:56.119Z,100268.31
2022-12-19T06:22:23.929Z,100273.50
2022-12-19T06:24:51.033Z,100266.59
2022-12-19T06:27:18.084Z,100281.28
2022-12-19T06:29:45.016Z,100279.56
2022-12-19T06:32:11.963Z,100276.97
2022-12-19T06:35:03.191Z,100269.19
2022-12-19T06:37:25.924Z,100276.97
2022-12-19T06:39:52.869Z,100274.38
2022-12-19T06:42:25.852Z,100270.03
2022-12-19T06:44:56.001Z,100281.25
2022-12-19T06:47:24.481Z,100281.25
2022-12-19T06:49:51.824Z,100267.44
2022-12-19T06:52:19.012Z,100269.16
2022-12-19T06:54:45.943Z,100286.44
2022-12-19T06:57:12.912Z,100270.00
2022-12-19T06:59:39.877Z,100277.81
2022-12-19T07:02:27.900Z,100258.75
2022-12-19T07:05:04.194Z,100268.28
2022-12-19T07:07:31.350Z,100263.91
2022-12-19T07:09:58.290Z,100241.41
2022-12-19T07:12:26.609Z,100250.81
2022-12-19T07:14:53.887Z,100265.44
2022-12-19T07:17:23.670Z,100258.41
2022-12-19T07:19:56.387Z,100267.00
2022-12-19T07:22:29.456Z,100259.06
2022-12-19T07:24:57.126Z,100254.66
2022-12-19T07:27:24.073Z,100258.06
2022-12-19T07:29:51.039Z,100253.63
2022-12-19T07:32:18.336Z,100264.75
2022-12-19T07:34:45.309Z,100253.34
2022-12-19T07:37:12.235Z,100252.38
2022-12-19T07:39:39.154Z,100251.38
2022-12-19T07:42:06.141Z,100246.13
2022-12-19T07:44:33.246Z,100246.84
2022-12-19T07:47:00.125Z,100251.78
2022-12-19T07:49:27.049Z,100239.41
2022-12-19T07:51:53.965Z,100243.56
2022-12-19T07:54:20.913Z,100240.66
2022-12-19T07:56:47.829Z,100242.28
2022-12-19T07:59:14.973Z,100239.59
2022-12-19T08:01:41.891Z,100231.41
2022-12-19T08:04:08.900Z,100220.66
2022-12-19T08:06:40.733Z,100215.13
2022-12-19T08:09:08.737Z,100211.31
2022-12-19T08:11:35.763Z,100207.53
2022-12-19T08:14:02.720Z,100208.28
2022-12-19T08:16:30.100Z,100213.13
2022-12-19T08:18:57.221Z,100212.81
2022-12-19T08:21:25.345Z,100220.28
2022-12-19T08:23:52.364Z,100217.28
2022-12-19T08:26:35.727Z,100208.16
2022-12-19T08:29:05.638Z,100184.00
2022-12-19T08:31:32.551Z,100197.63
2022-12-19T08:33:59.587Z,100211.09
2022-12-19T08:36:26.721Z,100218.47
2022-12-19T08:38:54.205Z,100211.69
2022-12-19T08:41:21.274Z,100201.63
2022-12-19T08:43:53.610Z,100214.66
2022-12-19T08:46:21.284Z,100221.81
2022-12-19T08:48:48.373Z,100217.78
2022-12-19T08:51:17.088Z,100205.78
2022-12-19T08:53:46.633Z,100211.47
2022-12-19T08:56:21.873Z,100201.16
2022-12-19T08:58:51.413Z,100197.13
2022-12-19T09:01:20.714Z,100198.44
2022-12-19T09:04:27.367Z,100203.63
2022-12-19T09:06:35.180Z,100207.66
2022-12-19T09:09:04.626Z,100180.22
2022-12-19T09:11:31.675Z,100202.00
2022-12-19T09:13:58.965Z,100198.66
2022-12-19T09:16:28.228Z,100167.97
2022-12-19T09:18:58.963Z,100167.19
2022-12-19T09:21:29.338Z,100169.13
2022-12-19T09:24:05.357Z,100154.66
2022-12-19T09:26:35.588Z,100165.09
2022-12-19T09:29:11.017Z,100155.22
2022-12-19T09:31:47.261Z,100157.50
2022-12-19T09:34:14.351Z,100167.72
2022-12-19T09:36:41.269Z,100143.56
2022-12-19T09:39:08.195Z,100150.44
2022-12-19T09:41:54.274Z,100155.22
2022-12-19T09:44:49.094Z,100152.66
2022-12-19T09:47:25.718Z,100140.78
2022-12-19T09:49:54.706Z,100138.16
2022-12-19T09:52:34.051Z,100125.16
2022-12-19T09:55:16.849Z,100126.06
2022-12-19T09:58:06.165Z,100122.19
2022-12-19T10:00:48.348Z,100123.53
2022-12-19T10:03:45.721Z,100117.19
2022-12-19T10:07:07.616Z,100109.59
2022-12-19T10:11:12.948Z,100095.63
2022-12-19T10:12:42.260Z,100089.69
2022-12-19T10:15:17.983Z,100090.94
2022-12-19T10:17:47.778Z,100083.31
2022-12-19T10:20:29.868Z,100084.72
2022-12-19T10:23:17.026Z,100094.66
2022-12-19T10:25:54.392Z,100082.03
2022-12-19T10:28:21.272Z,100080.44
2022-12-19T10:31:12.572Z,100082.91
2022-12-19T10:34:08.561Z,100076.69
2022-12-19T10:37:12.872Z,100071.47
2022-12-19T10:39:57.198Z,100067.41
2022-12-19T10:42:49.752Z,100067.59
2022-12-19T10:45:20.022Z,100058.84
2022-12-19T10:47:50.056Z,100052.59
2022-12-19T10:50:22.304Z,100051.44
2022-12-19T10:53:04.350Z,100045.41
2022-12-19T10:55:53.947Z,100032.09
2022-12-19T10:58:36.505Z,100043.53
2022-12-19T11:01:14.397Z,100039.19
2022-12-19T11:03:44.505Z,100037.63
2022-12-19T11:06:35.129Z,100026.25
2022-12-19T11:09:28.343Z,100028.53
2022-12-19T11:16:22.321Z,100025.81
2022-12-19T11:20:16.794Z,100017.00
2022-12-19T11:26:49.766Z,100024.09
2022-12-19T11:29:37.562Z,99996.72
2022-12-19T11:29:37.682Z,100016.09
2022-12-19T11:30:47.828Z,100014.34
2022-12-19T11:32:43.433Z,99993.44
2022-12-19T11:35:37.022Z,100001.97
2022-12-19T11:38:08.595Z,99998.56
2022-12-19T11:40:51.828Z,99988.84
2022-12-19T11:43:50.327Z,99996.00
2022-12-19T11:46:46.596Z,99989.31
2022-12-19T11:49:28.841Z,99992.91
2022-12-19T11:52:04.343Z,99988.13
2022-12-19T11:54:38.972Z,99980.78
2022-12-19T11:57:12.323Z,99983.00
2022-12-19T11:59:40.951Z,99963.97
2022-12-19T12:02:32.578Z,99978.84
2022-12-19T12:05:07.754Z,99979.09
2022-12-19T12:08:48.192Z,99969.66
2022-12-19T12:15:21.599Z,99976.00
2022-12-19T12:25:53.298Z,99968.78
2022-12-19T12:29:34.045Z,99964.00
2022-12-19T12:31:20.455Z,99951.38
2022-12-19T12:31:39.809Z,99956.09
2022-12-19T12:31:44.390Z,99947.09
2022-12-19T12:31:56.858Z,99942.47
2022-12-19T12:35:48.780Z,99951.53
2022-12-19T12:38:36.355Z,99939.97
2022-12-19T12:41:48.762Z,99936.28
2022-12-19T12:44:15.875Z,99932.19
2022-12-19T12:47:02.853Z,99929.81
2022-12-19T12:49:40.432Z,99928.97
2022-12-19T12:52:13.135Z,99926.91
2022-12-19T12:54:44.334Z,99917.34
2022-12-19T12:57:19.941Z,99919.53
2022-12-19T12:59:48.556Z,99902.97
2022-12-19T13:02:22.396Z,99925.03
2022-12-19T13:05:01.447Z,99915.72
2022-12-19T13:07:52.590Z,99918.38
2022-12-19T13:10:28.671Z,99914.81
2022-12-19T13:13:05.155Z,99908.66
2022-12-19T13:15:45.581Z,99912.25
2022-12-19T13:18:33.154Z,99911.63
2022-12-19T13:21:03.149Z,99914.13
2022-12-19T13:23:30.033Z,99905.25
2022-12-19T13:25:57.292Z,99901.38
2022-12-19T13:28:37.492Z,99897.97
2022-12-19T13:31:20.977Z,99904.47
2022-12-19T13:33:56.276Z,99905.91
2022-12-19T13:39:49.402Z,99904.81
2022-12-19T13:40:11.212Z,99905.91
2022-12-19T13:43:09.852Z,99908.63
2022-12-19T13:45:41.879Z,99896.81
2022-12-19T13:48:16.861Z,99884.06
2022-12-19T13:50:48.031Z,99887.84
2022-12-19T13:53:22.756Z,99879.44
2022-12-19T13:55:50.039Z,99875.13
2022-12-19T13:58:30.035Z,99870.09
2022-12-19T14:01:06.887Z,99864.91
2022-12-19T14:03:39.027Z,99875.66
2022-12-19T14:06:27.921Z,99856.00
2022-12-19T14:11:25.575Z,99850.94
2022-12-19T14:13:47.801Z,99835.88
2022-12-19T14:15:12.578Z,99860.84
2022-12-19T14:17:40.386Z,99861.81
2022-12-19T14:22:02.675Z,99864.75
2022-12-19T14:23:10.591Z,99864.44
2022-12-19T14:28:20.447Z,99850.56
2022-12-19T14:28:54.569Z,99834.56
2022-12-19T14:31:24.815Z,99846.53
2022-12-19T14:34:18.443Z,99842.41
2022-12-19T14:36:49.873Z,99849.88
2022-12-19T14:39:26.974Z,99845.59
2022-12-19T14:43:57.609Z,99837.25
2022-12-19T14:53:51.488Z,99844.66
2022-12-19T14:54:15.172Z,99816.47
2022-12-19T14:54:32.370Z,99846.16
2022-12-19T14:58:11.660Z,99837.47
2022-12-19T15:01:07.276Z,99832.22
2022-12-19T15:03:23.887Z,99824.47
2022-12-19T15:05:52.931Z,99831.44
2022-12-19T15:09:02.341Z,99822.69
2022-12-19T15:12:05.918Z,99831.16
2022-12-19T15:14:58.981Z,99822.56
2022-12-19T15:17:26.747Z,99817.53
2022-12-19T15:19:53.746Z,99814.78
2022-12-19T15:22:21.223Z,99822.97
2022-12-19T15:24:48.120Z,99821.28
2022-12-19T15:27:17.878Z,99807.16
2022-12-19T15:29:45.464Z,99794.19
2022-12-19T15:32:18.333Z,99796.59
2022-12-19T15:34:50.978Z,99800.03
2022-12-19T15:37:18.469Z,99797.97
2022-12-19T15:39:45.816Z,99802.94
2022-12-19T15:42:24.160Z,99806.97
2022-12-19T15:44:53.772Z,99805.00
2022-12-19T15:47:37.499Z,99807.50
2022-12-19T15:50:32.495Z,99788.44
2022-12-19T15:53:25.763Z,99802.94
2022-12-19T15:56:00.397Z,99796.84
2022-12-19T15:58:28.764Z,99776.34
2022-12-19T16:01:02.678Z,99771.25
2022-12-19T16:03:29.954Z,99781.34
2022-12-19T16:05:57.388Z,99777.00
2022-12-19T16:08:28.403Z,99777.78
2022-12-19T16:11:01.796Z,99785.66
2022-12-19T16:13:35.508Z,99773.16
2022-12-19T16:16:07.931Z,99777.31
2022-12-19T16:18:39.936Z,99766.53
2022-12-19T16:21:06.828Z,99770.75
2022-12-19T16:23:33.748Z,99775.72
2022-12-19T16:26:01.268Z,99773.38
2022-12-19T16:28:34.168Z,99762.78
2022-12-19T16:31:15.229Z,99763.88
2022-12-19T16:33:42.582Z,99756.75
2022-12-19T16:36:09.956Z,99758.56
2022-12-19T16:38:36.870Z,99753.59
2022-12-19T16:41:03.830Z,99747.13
2022-12-19T16:43:33.190Z,99757.88
2022-12-19T16:46:01.982Z,99746.69
2022-12-19T16:48:34.538Z,99748.50
2022-12-19T16:51:02.548Z,99750.38
2022-12-19T16:53:30.309Z,99748.09
2022-12-19T16:55:58.316Z,99744.31
2022-12-19T17:59:14.877Z,99709.91
2022-12-19T18:01:44.413Z,99722.09
2022-12-19T18:04:16.735Z,99709.94
2022-12-19T18:06:43.752Z,99674.97
2022-12-19T18:09:22.135Z,99692.97
2022-12-19T18:11:51.085Z,99695.69
2022-12-19T18:14:19.435Z,99697.69
2022-12-19T18:16:48.502Z,99691.09
2022-12-19T18:19:21.984Z,99707.75
2022-12-19T18:21:49.505Z,99690.53
2022-12-19T18:24:16.815Z,99679.66
2022-12-19T18:26:45.341Z,99690.09
2022-12-19T18:29:12.659Z,99695.72
2022-12-19T18:31:46.268Z,99670.06
2022-12-19T18:34:23.262Z,99670.13
2022-12-19T18:36:51.554Z,99671.56
2022-12-19T18:39:24.808Z,99679.06
2022-12-19T18:41:52.839Z,99670.94
2022-12-19T18:44:20.618Z,99660.84
2022-12-19T18:46:51.617Z,99652.78
2022-12-19T18:49:20.781Z,99666.38
2022-12-19T18:51:49.383Z,99652.94
2022-12-19T18:54:19.533Z,99644.84
2022-12-19T18:56:47.781Z,99630.88
2022-12-19T18:59:14.935Z,99640.19
2022-12-19T19:01:44.819Z,99627.53
2022-12-19T19:04:13.499Z,99638.69
2022-12-19T19:06:48.332Z,99635.88
2022-12-19T19:09:18.391Z,99629.44
2022-12-19T19:11:45.412Z,99624.84
2022-12-19T19:14:12.942Z,99636.72
2022-12-19T19:16:40.426Z,99641.63
2022-12-19T19:19:10.916Z,99626.47
2022-12-19T19:21:38.928Z,99634.16
2022-12-19T19:24:06.202Z,99631.38
2022-12-19T19:26:33.207Z,99628.38
2022-12-19T19:29:00.110Z,99630.88
2022-12-19T19:31:30.555Z,99627.78
2022-12-19T19:34:10.966Z,99638.91
2022-12-19T19:36:40.632Z,99628.16
2022-12-19T19:39:07.550Z,99624.41
2022-12-19T19:41:35.065Z,99615.88
2022-12-19T19:44:02.283Z,99620.47
2022-12-19T19:46:29.511Z,99628.97
2022-12-19T19:48:57.559Z,99624.41
2022-12-19T19:51:24.616Z,99610.34
2022-12-19T19:53:52.085Z,99602.22
2022-12-19T19:56:18.983Z,99619.34
2022-12-19T19:58:45.963Z,99618.16
2022-12-19T20:01:14.383Z,99620.59
2022-12-19T20:03:45.327Z,99615.13
2022-12-19T20:06:12.900Z,99605.41
2022-12-19T20:08:40.794Z,99603.28
2022-12-19T20:11:09.576Z,99610.94
2022-12-19T20:13:36.772Z,99602.84
2022-12-19T20:16:06.900Z,99602.50
2022-12-19T20:18:34.476Z,99585.97
2022-12-19T20:21:03.886Z,99542.25
2022-12-19T20:23:33.610Z,99600.03
2022-12-19T20:26:02.000Z,99597.13
2022-12-19T20:28:29.394Z,99582.78
2022-12-19T20:30:56.959Z,99584.13
2022-12-19T20:33:24.141Z,99580.56
2022-12-19T20:35:51.072Z,99571.94
2022-12-19T20:38:18.013Z,99573.38
2022-12-19T20:40:46.052Z,99580.03
2022-12-19T20:43:13.309Z,99591.84
2022-12-19T20:45:40.265Z,99590.59
2022-12-19T20:48:07.223Z,99592.97
2022-12-19T20:50:38.199Z,99589.28
2022-12-19T20:53:09.601Z,99585.41
2022-12-19T20:55:36.531Z,99580.94
2022-12-19T20:58:03.546Z,99564.97
2022-12-19T21:00:30.472Z,99561.09
2022-12-19T21:05:45.026Z,99557.53
2022-12-19T21:08:11.960Z,99549.28
2022-12-19T21:10:38.887Z,99549.16
2022-12-19T21:13:06.051Z,99548.22
2022-12-19T21:15:34.425Z,99549.72
2022-12-19T21:18:01.774Z,99539.16
2022-12-19T21:20:34.163Z,99545.38
2022-12-19T21:23:01.674Z,99545.22
2022-12-19T21:25:28.710Z,99506.16
2022-12-19T21:27:55.876Z,99541.28
2022-12-19T21:30:23.076Z,99527.97
2022-12-19T21:32:50.077Z,99536.69
2022-12-19T21:35:17.075Z,99537.25
2022-12-19T21:37:50.240Z,99526.34
2022-12-19T21:40:20.618Z,99525.28
2022-12-19T21:42:48.267Z,99524.91
2022-12-19T21:45:16.199Z,99507.09
2022-12-19T21:47:43.335Z,99508.41
2022-12-19T21:50:13.473Z,99501.59
2022-12-19T21:52:41.286Z,99520.28
2022-12-19T21:55:09.780Z,99500.78
2022-12-19T21:57:40.968Z,99511.94
2022-12-19T22:00:11.299Z,99513.53
2022-12-19T22:02:39.004Z,99508.88
2022-12-19T22:05:07.008Z,99426.38
2022-12-19T22:07:34.822Z,99502.63
2022-12-19T22:10:01.775Z,99431.47
2022-12-19T22:12:28.659Z,99509.97
2022-12-19T22:14:55.684Z,99509.75
2022-12-19T22:17:22.661Z,99502.56
2022-12-19T22:19:49.601Z,99524.31
2022-12-19T22:22:16.521Z,99524.00
2022-12-19T22:24:43.439Z,99512.34
2022-12-19T22:27:10.393Z,99511.41
2022-12-19T22:29:37.676Z,99489.88
2022-12-19T22:32:05.207Z,99454.38
2022-12-19T22:34:32.435Z,99485.41
2022-12-19T22:36:59.488Z,99499.75
2022-12-19T22:39:26.433Z,99488.16
2022-12-19T22:41:53.373Z,99485.44
2022-12-19T22:44:23.858Z,99491.38
2022-12-19T22:46:51.688Z,99482.47
2022-12-19T22:49:19.034Z,99488.41
2022-12-19T22:51:46.367Z,99473.56
2022-12-19T22:54:14.058Z,99483.75
2022-12-19T22:56:41.917Z,99487.03
2022-12-19T22:59:10.687Z,99476.19
2022-12-19T23:01:41.186Z,99473.44
2022-12-19T23:04:10.981Z,99474.19
2022-12-19T23:06:38.407Z,99470.56
2022-12-19T23:09:11.492Z,99469.63
2022-12-19T23:11:40.413Z,99468.47
2022-12-19T23:14:09.240Z,99476.19
2022-12-19T23:16:36.243Z,99457.44
2022-12-19T23:19:05.119Z,99447.84
2022-12-19T23:21:32.268Z,99458.69
2022-12-19T23:23:59.206Z,99450.72
2022-12-19T23:26:32.003Z,99452.28
2022-12-19T23:29:01.897Z,99451.25
2022-12-19T23:31:29.555Z,99449.09
2022-12-19T23:33:57.715Z,99435.31
2022-12-19T23:37:00.568Z,99447.19
2022-12-19T23:39:12.955Z,99444.31
2022-12-19T23:41:40.263Z,99446.13
2022-12-19T23:44:09.210Z,99438.50
2022-12-19T23:46:37.097Z,99443.34
2022-12-19T23:49:04.305Z,99429.56
2022-12-19T23:51:31.480Z,99440.91
2022-12-19T23:53:58.460Z,99456.63
2022-12-19T23:56:28.221Z,99453.00
2022-12-19T23:58:56.303Z,99447.19
